createdAt,value
2023-02-23T00:02:22.239Z,101127.53
2023-02-23T00:04:51.376Z,101128.38
2023-02-23T00:07:20.511Z,101129.22
2023-02-23T00:09:48.544Z,101114.44
2023-02-23T00:12:17.181Z,101125.66
2023-02-23T00:14:45.311Z,101116.78
2023-02-23T00:17:15.182Z,101109.06
2023-02-23T00:19:49.361Z,101113.28
2023-02-23T00:22:18.590Z,101103.81
2023-02-23T00:24:47.856Z,101123.06
2023-02-23T00:27:20.013Z,101090.84
2023-02-23T00:29:50.271Z,101118.69
2023-02-23T00:32:20.093Z,101124.84
2023-02-23T00:35:04.365Z,101120.38
2023-02-23T00:37:32.395Z,101111.50
2023-02-23T00:40:00.422Z,101122.03
2023-02-23T00:42:32.289Z,101124.59
2023-02-23T00:45:07.196Z,101129.94
2023-02-23T00:47:35.755Z,101122.94
2023-02-23T00:50:05.936Z,101122.88
2023-02-23T00:52:33.999Z,101123.75
2023-02-23T00:55:01.876Z,101126.31
2023-02-23T00:57:29.780Z,101129.91
2023-02-23T00:59:57.656Z,101135.09
2023-02-23T01:02:25.502Z,101133.34
2023-02-23T01:04:53.434Z,101128.91
2023-02-23T01:07:25.597Z,101140.31
2023-02-23T01:09:53.973Z,101123.75
2023-02-23T01:12:21.943Z,101144.72
2023-02-23T01:14:51.246Z,101137.69
2023-02-23T01:17:20.038Z,101147.41
2023-02-23T01:19:48.580Z,101137.66
2023-02-23T01:22:16.692Z,101135.22
2023-02-23T01:24:47.086Z,101151.78
2023-02-23T01:27:17.495Z,101151.72
2023-02-23T01:29:45.531Z,101141.31
2023-02-23T01:32:13.769Z,101138.75
2023-02-23T01:34:42.743Z,101145.59
2023-02-23T01:37:10.552Z,101150.00
2023-02-23T01:39:49.882Z,101152.69
2023-02-23T01:42:19.232Z,101137.75
2023-02-23T01:45:24.805Z,101144.78
2023-02-23T01:47:55.868Z,101150.06
2023-02-23T01:50:25.902Z,101147.41
2023-02-23T01:53:30.533Z,101141.31
2023-02-23T01:56:11.435Z,101140.47
2023-02-23T01:58:52.206Z,101144.84
2023-02-23T02:01:27.649Z,101147.50
2023-02-23T02:04:01.234Z,101144.88
2023-02-23T02:06:31.202Z,101137.06
2023-02-23T02:09:06.576Z,101145.69
2023-02-23T02:11:39.174Z,101144.09
2023-02-23T02:14:13.095Z,101144.00
2023-02-23T02:17:08.882Z,101150.13
2023-02-23T02:20:32.625Z,101144.97
2023-02-23T02:23:27.681Z,101143.16
2023-02-23T02:26:06.232Z,101144.97
2023-02-23T02:29:07.233Z,101144.00
2023-02-23T02:32:12.158Z,101146.72
2023-02-23T02:35:13.204Z,101152.03
2023-02-23T02:37:57.355Z,101157.19
2023-02-23T02:40:32.530Z,101130.91
2023-02-23T02:43:08.872Z,101138.09
2023-02-23T02:45:45.234Z,101150.31
2023-02-23T02:48:21.759Z,101145.97
2023-02-23T02:50:56.295Z,101145.94
2023-02-23T02:53:34.760Z,101144.97
2023-02-23T02:56:05.701Z,101143.31
2023-02-23T02:58:34.394Z,101141.53
2023-02-23T03:01:26.030Z,101146.84
2023-02-23T03:04:11.817Z,101141.56
2023-02-23T03:07:04.482Z,101137.25
2023-02-23T03:09:59.746Z,101137.25
2023-02-23T03:12:52.303Z,101140.69
2023-02-23T03:15:48.053Z,101133.75
2023-02-23T03:18:49.358Z,101137.25
2023-02-23T03:21:43.416Z,101147.72
2023-02-23T03:24:38.873Z,101147.75
2023-02-23T03:27:34.599Z,101131.19
2023-02-23T03:30:25.185Z,101145.09
2023-02-23T03:33:15.099Z,101145.22
2023-02-23T03:36:10.356Z,101157.47
2023-02-23T03:39:01.092Z,101148.72
2023-02-23T03:41:49.923Z,101148.81
2023-02-23T03:44:42.339Z,101153.09
2023-02-23T03:47:30.986Z,101165.41
2023-02-23T03:50:21.571Z,101168.91
2023-02-23T03:53:14.092Z,101169.84
2023-02-23T03:56:07.262Z,101164.56
2023-02-23T03:58:57.893Z,101162.78
2023-02-23T04:01:46.598Z,101183.81
2023-02-23T04:04:32.312Z,101175.09
2023-02-23T04:07:21.485Z,101179.56
2023-02-23T04:10:07.997Z,101177.78
2023-02-23T04:13:02.084Z,101176.88
2023-02-23T04:15:34.028Z,101178.66
2023-02-23T04:18:05.581Z,101176.03
2023-02-23T04:20:33.818Z,101179.53
2023-02-23T04:23:01.980Z,101169.91
2023-02-23T04:25:31.465Z,101180.44
2023-02-23T04:27:59.482Z,101178.63
2023-02-23T04:30:28.478Z,101178.63
2023-02-23T04:32:56.790Z,101182.16
2023-02-23T04:35:27.851Z,101179.56
2023-02-23T04:37:56.143Z,101176.94
2023-02-23T04:40:24.518Z,101163.09
2023-02-23T04:42:53.018Z,101182.25
2023-02-23T04:45:22.104Z,101179.63
2023-02-23T04:47:51.002Z,101188.28
2023-02-23T04:50:19.914Z,101183.94
2023-02-23T04:52:50.945Z,101178.78
2023-02-23T04:55:21.488Z,101191.03
2023-02-23T04:57:49.847Z,101183.00
2023-02-23T05:00:19.836Z,101181.28
2023-02-23T05:02:49.592Z,101191.81
2023-02-23T05:05:18.726Z,101192.69
2023-02-23T05:07:46.581Z,101195.41
2023-02-23T05:10:16.176Z,101201.44
2023-02-23T05:12:44.351Z,101194.56
2023-02-23T05:15:12.791Z,101190.09
2023-02-23T05:17:42.334Z,101192.00
2023-02-23T05:20:12.680Z,101197.19
2023-02-23T05:22:41.316Z,101197.06
2023-02-23T05:25:10.322Z,101201.47
2023-02-23T05:27:40.217Z,101202.38
2023-02-23T05:30:09.915Z,101196.44
2023-02-23T05:32:38.119Z,101204.22
2023-02-23T05:35:07.120Z,101209.56
2023-02-23T05:37:35.100Z,101199.88
2023-02-23T05:40:03.082Z,101208.63
2023-02-23T05:42:32.065Z,101213.00
2023-02-23T05:45:01.351Z,101212.22
2023-02-23T05:47:29.592Z,101216.53
2023-02-23T05:49:57.567Z,101203.50
2023-02-23T05:52:25.679Z,101214.00
2023-02-23T05:54:56.730Z,101213.16
2023-02-23T05:57:31.954Z,101210.50
2023-02-23T06:00:01.122Z,101214.91
2023-02-23T06:02:32.952Z,101215.72
2023-02-23T06:05:09.482Z,101216.53
2023-02-23T06:07:39.024Z,101222.72
2023-02-23T06:10:07.814Z,101216.66
2023-02-23T06:12:35.843Z,101227.06
2023-02-23T06:15:07.490Z,101220.91
2023-02-23T06:17:35.376Z,101226.16
2023-02-23T06:20:03.489Z,101223.56
2023-02-23T06:22:31.559Z,101227.13
2023-02-23T06:24:59.691Z,101223.59
2023-02-23T06:27:27.521Z,101225.44
2023-02-23T06:29:55.907Z,101233.34
2023-02-23T06:32:25.248Z,101235.09
2023-02-23T06:34:53.338Z,101230.00
2023-02-23T06:37:21.344Z,101241.97
2023-02-23T06:39:50.491Z,101226.41
2023-02-23T06:42:18.491Z,101247.38
2023-02-23T06:44:47.230Z,101249.16
2023-02-23T06:47:15.476Z,101257.06
2023-02-23T06:49:44.757Z,101254.34
2023-02-23T06:52:13.509Z,101253.50
2023-02-23T06:54:41.915Z,101260.47
2023-02-23T06:57:10.450Z,101268.41
2023-02-23T06:59:39.291Z,101264.06
2023-02-23T07:02:07.491Z,101277.94
2023-02-23T07:04:35.786Z,101278.03
2023-02-23T07:07:05.377Z,101273.78
2023-02-23T07:09:33.551Z,101294.72
2023-02-23T07:12:01.940Z,101296.44
2023-02-23T07:14:29.801Z,101290.38
2023-02-23T07:16:57.879Z,101294.72
2023-02-23T07:19:25.857Z,101292.91
2023-02-23T07:21:53.869Z,101276.38
2023-02-23T07:24:23.452Z,101297.34
2023-02-23T07:26:52.148Z,101301.78
2023-02-23T07:29:20.259Z,101289.63
2023-02-23T07:31:50.235Z,101315.75
2023-02-23T07:34:18.491Z,101320.97
2023-02-23T07:36:46.602Z,101321.06
2023-02-23T07:39:14.790Z,101335.97
2023-02-23T07:41:43.983Z,101326.31
2023-02-23T07:44:12.017Z,101334.28
2023-02-23T07:46:41.930Z,101316.09
2023-02-23T07:49:10.047Z,101344.78
2023-02-23T07:51:38.088Z,101315.06
2023-02-23T07:54:06.780Z,101345.66
2023-02-23T07:56:35.575Z,101340.38
2023-02-23T07:59:05.257Z,101355.28
2023-02-23T08:01:33.277Z,101341.38
2023-02-23T08:04:03.531Z,101358.78
2023-02-23T08:06:31.829Z,101355.25
2023-02-23T08:09:00.173Z,101358.75
2023-02-23T08:11:29.739Z,101366.53
2023-02-23T08:14:00.174Z,101344.78
2023-02-23T08:16:32.495Z,101363.13
2023-02-23T08:19:01.095Z,101369.91
2023-02-23T08:21:30.282Z,101351.69
2023-02-23T08:23:58.978Z,101351.72
2023-02-23T08:26:27.716Z,101361.34
2023-02-23T08:28:56.328Z,101363.91
2023-02-23T08:31:25.437Z,101374.34
2023-02-23T08:33:55.101Z,101387.50
2023-02-23T08:36:23.821Z,101384.13
2023-02-23T08:38:52.120Z,101385.94
2023-02-23T08:41:20.885Z,101390.97
2023-02-23T08:43:49.199Z,101392.66
2023-02-23T08:46:20.342Z,101367.50
2023-02-23T08:48:48.317Z,101396.16
2023-02-23T08:51:18.375Z,101396.19
2023-02-23T08:53:48.535Z,101398.88
2023-02-23T08:56:17.749Z,101398.78
2023-02-23T08:58:45.798Z,101389.19
2023-02-23T09:01:22.570Z,101390.72
2023-02-23T09:03:50.801Z,101381.94
2023-02-23T09:06:23.182Z,101403.66
2023-02-23T09:08:51.469Z,101384.41
2023-02-23T09:11:19.832Z,101401.13
2023-02-23T09:13:49.184Z,101411.44
2023-02-23T09:16:17.576Z,101402.63
2023-02-23T09:18:46.452Z,101418.06
2023-02-23T09:21:22.331Z,101427.88
2023-02-23T09:23:54.645Z,101418.44
2023-02-23T09:26:23.514Z,101419.31
2023-02-23T09:28:52.226Z,101403.56
2023-02-23T09:31:23.924Z,101427.28
2023-02-23T09:33:52.703Z,101418.34
2023-02-23T09:36:22.346Z,101430.47
2023-02-23T09:38:55.518Z,101443.59
2023-02-23T09:42:04.129Z,101439.19
2023-02-23T09:44:43.442Z,101441.59
2023-02-23T09:47:25.848Z,101447.00
2023-02-23T09:49:56.674Z,101453.84
2023-02-23T09:52:29.359Z,101450.44
2023-02-23T09:55:01.184Z,101435.41
2023-02-23T09:57:39.065Z,101455.72
2023-02-23T10:00:17.258Z,101458.59
2023-02-23T10:02:59.330Z,101451.44
2023-02-23T10:05:31.773Z,101448.28
2023-02-23T10:08:07.576Z,101444.47
2023-02-23T10:10:45.957Z,101459.06
2023-02-23T10:13:23.078Z,101449.06
2023-02-23T10:16:05.079Z,101449.31
2023-02-23T10:19:08.693Z,101465.78
2023-02-23T10:21:52.781Z,101455.03
2023-02-23T10:24:36.255Z,101480.78
2023-02-23T10:27:11.683Z,101488.81
2023-02-23T10:29:43.846Z,101482.03
2023-02-23T10:32:23.863Z,101490.75
2023-02-23T10:34:56.714Z,101506.78
2023-02-23T10:37:25.986Z,101491.31
2023-02-23T10:39:54.677Z,101504.78
2023-02-23T10:42:28.933Z,101505.03
2023-02-23T10:44:57.830Z,101504.72
2023-02-23T10:47:28.838Z,101501.09
2023-02-23T10:49:57.952Z,101513.41
2023-02-23T10:52:32.830Z,101516.50
2023-02-23T10:55:04.225Z,101489.22
2023-02-23T10:57:40.403Z,101494.00
2023-02-23T11:00:27.874Z,101508.78
2023-02-23T11:02:58.383Z,101528.69
2023-02-23T11:05:33.337Z,101528.41
2023-02-23T11:08:14.151Z,101522.41
2023-02-23T11:10:43.164Z,101530.13
2023-02-23T11:13:22.993Z,101515.03
2023-02-23T11:16:00.916Z,101544.44
2023-02-23T11:21:42.181Z,101550.16
2023-02-23T11:24:19.576Z,101540.56
2023-02-23T11:26:50.006Z,101544.19
2023-02-23T11:29:33.563Z,101537.97
2023-02-23T11:32:10.248Z,101536.94
2023-02-23T11:34:40.895Z,101541.44
2023-02-23T11:37:23.386Z,101539.88
2023-02-23T11:39:55.779Z,101543.25
2023-02-23T11:42:25.436Z,101535.66
2023-02-23T11:45:04.852Z,101565.09
2023-02-23T11:47:35.231Z,101558.25
2023-02-23T11:50:04.743Z,101549.34
2023-02-23T11:52:33.154Z,101544.09
2023-02-23T11:55:04.254Z,101545.41
2023-02-23T11:57:37.466Z,101553.97
2023-02-23T12:00:14.417Z,101561.91
2023-02-23T12:02:51.178Z,101578.06
2023-02-23T12:05:23.732Z,101578.31
2023-02-23T12:07:58.090Z,101587.75
2023-02-23T12:10:30.382Z,101589.41
2023-02-23T12:13:10.985Z,101591.88
2023-02-23T12:15:47.116Z,101594.25
2023-02-23T12:18:38.154Z,101605.97
2023-02-23T12:21:19.350Z,101614.84
2023-02-23T12:23:51.983Z,101612.44
2023-02-23T12:26:23.205Z,101609.31
2023-02-23T12:28:58.846Z,101594.41
2023-02-23T12:31:40.446Z,101599.22
2023-02-23T12:34:15.458Z,101596.53
2023-02-23T12:36:47.819Z,101579.25
2023-02-23T12:39:24.404Z,101581.09
2023-02-23T12:41:59.864Z,101561.09
2023-02-23T12:44:38.486Z,101548.91
2023-02-23T12:47:17.208Z,101567.72
2023-02-23T12:49:51.655Z,101546.00
2023-02-23T12:52:26.504Z,101565.88
2023-02-23T12:54:54.429Z,101560.53
2023-02-23T12:57:31.196Z,101559.03
2023-02-23T13:00:30.459Z,101540.19
2023-02-23T13:03:38.389Z,101540.22
2023-02-23T13:06:14.671Z,101543.72
2023-02-23T13:08:59.789Z,101539.50
2023-02-23T13:11:46.305Z,101545.47
2023-02-23T13:14:21.989Z,101541.25
2023-02-23T13:16:55.539Z,101529.03
2023-02-23T13:19:35.368Z,101515.94
2023-02-23T13:22:12.311Z,101514.09
2023-02-23T13:24:45.046Z,101513.25
2023-02-23T13:27:19.825Z,101518.72
2023-02-23T13:29:49.816Z,101512.31
2023-02-23T13:32:20.524Z,101502.81
2023-02-23T13:34:54.706Z,101510.72
2023-02-23T13:37:28.210Z,101490.38
2023-02-23T13:40:19.224Z,101494.84
2023-02-23T13:42:56.599Z,101492.69
2023-02-23T13:45:34.397Z,101500.97
2023-02-23T13:48:17.305Z,101506.38
2023-02-23T13:51:25.010Z,101483.34
2023-02-23T13:54:40.923Z,101518.16
2023-02-23T14:00:34.494Z,101488.22
2023-02-23T14:03:08.827Z,101472.63
2023-02-23T14:06:10.340Z,101467.50
2023-02-23T14:08:45.796Z,101487.59
2023-02-23T14:11:31.951Z,101467.69
2023-02-23T14:14:03.891Z,101493.69
2023-02-23T14:16:33.440Z,101498.94
2023-02-23T14:19:26.400Z,101491.91
2023-02-23T14:22:04.237Z,101469.34
2023-02-23T14:24:35.809Z,101498.28
2023-02-23T14:27:41.875Z,101499.22
2023-02-23T14:30:29.551Z,101471.25
2023-02-23T14:33:21.163Z,101468.66
2023-02-23T14:36:27.463Z,101496.69
2023-02-23T14:39:04.796Z,101486.13
2023-02-23T14:41:41.298Z,101496.81
2023-02-23T14:44:31.148Z,101481.97
2023-02-23T14:47:04.828Z,101475.88
2023-02-23T14:49:39.055Z,101462.91
2023-02-23T14:52:09.536Z,101483.81
2023-02-23T14:54:39.088Z,101494.25
2023-02-23T14:57:20.031Z,101467.31
2023-02-23T14:59:55.734Z,101500.47
2023-02-23T15:02:26.440Z,101507.63
2023-02-23T15:04:55.143Z,101496.94
2023-02-23T15:07:32.054Z,101478.00
2023-02-23T15:10:02.365Z,101508.47
2023-02-23T15:12:38.103Z,101509.41
2023-02-23T15:15:13.342Z,101493.75
2023-02-23T15:17:45.983Z,101512.03
2023-02-23T15:20:17.816Z,101507.78
2023-02-23T15:22:56.382Z,101514.72
2023-02-23T15:25:38.527Z,101514.75
2023-02-23T15:28:23.569Z,101513.94
2023-02-23T15:30:53.525Z,101483.34
2023-02-23T15:33:28.754Z,101518.38
2023-02-23T15:36:03.815Z,101514.97
2023-02-23T15:38:43.585Z,101501.91
2023-02-23T15:41:20.738Z,101526.22
2023-02-23T15:43:50.858Z,101512.25
2023-02-23T15:46:25.923Z,101523.59
2023-02-23T15:48:56.909Z,101513.94
2023-02-23T15:51:35.601Z,101500.88
2023-02-23T15:54:13.804Z,101525.28
2023-02-23T15:56:47.044Z,101538.41
2023-02-23T15:59:25.526Z,101547.31
2023-02-23T16:01:58.584Z,101521.13
2023-02-23T16:04:32.973Z,101541.28
2023-02-23T16:07:20.148Z,101549.09
2023-02-23T16:09:54.527Z,101544.72
2023-02-23T16:12:26.156Z,101542.09
2023-02-23T16:14:59.018Z,101564.00
2023-02-23T16:17:29.810Z,101560.47
2023-02-23T16:20:11.439Z,101550.06
2023-02-23T16:22:41.075Z,101548.34
2023-02-23T16:25:13.573Z,101572.75
2023-02-23T16:27:44.739Z,101560.59
2023-02-23T16:30:38.522Z,101583.31
2023-02-23T16:33:12.423Z,101570.28
2023-02-23T16:35:48.850Z,101615.78
2023-02-23T16:38:25.499Z,101642.97
2023-02-23T16:40:53.503Z,101655.25
2023-02-23T16:43:23.944Z,101664.91
2023-02-23T16:45:53.599Z,101672.84
2023-02-23T16:48:25.151Z,101666.78
2023-02-23T16:50:56.219Z,101679.94
2023-02-23T16:53:25.355Z,101704.41
2023-02-23T16:55:58.278Z,101703.56
2023-02-23T16:58:32.716Z,101702.69
2023-02-23T17:01:02.501Z,101702.69
2023-02-23T17:03:31.430Z,101707.94
2023-02-23T17:06:01.954Z,101668.56
2023-02-23T17:08:30.155Z,101687.81
2023-02-23T17:11:08.368Z,101699.22
2023-02-23T17:13:36.777Z,101708.84
2023-02-23T17:16:14.293Z,101686.97
2023-02-23T17:18:44.997Z,101703.59
2023-02-23T17:21:15.925Z,101695.78
2023-02-23T17:24:04.262Z,101702.75
2023-02-23T17:26:32.363Z,101708.03
2023-02-23T17:29:04.880Z,101710.69
2023-02-23T17:31:36.253Z,101724.69
2023-02-23T17:34:04.745Z,101724.69
2023-02-23T17:36:34.759Z,101730.81
2023-02-23T17:39:03.195Z,101722.94
2023-02-23T17:41:33.478Z,101733.47
2023-02-23T17:44:02.784Z,101722.97
2023-02-23T17:46:35.609Z,101740.47
2023-02-23T17:49:03.877Z,101725.63
2023-02-23T17:51:32.293Z,101730.88
2023-02-23T17:54:00.253Z,101733.50
2023-02-23T17:56:36.335Z,101719.53
2023-02-23T17:59:04.518Z,101722.16
2023-02-23T18:01:32.540Z,101708.19
2023-02-23T18:04:02.997Z,101712.56
2023-02-23T18:06:31.267Z,101701.19
2023-02-23T18:08:59.522Z,101695.91
2023-02-23T18:11:28.844Z,101712.50
2023-02-23T18:13:56.938Z,101701.13
2023-02-23T18:16:25.126Z,101691.44
2023-02-23T18:18:55.377Z,101686.22
2023-02-23T18:21:25.542Z,101668.69
2023-02-23T18:23:53.919Z,101655.47
2023-02-23T18:26:24.382Z,101666.72
2023-02-23T18:28:52.913Z,101665.69
2023-02-23T18:31:23.629Z,101643.81
2023-02-23T18:33:53.721Z,101654.25
2023-02-23T18:36:26.157Z,101644.56
2023-02-23T18:38:55.689Z,101632.06
2023-02-23T18:41:32.045Z,101652.34
2023-02-23T18:44:00.549Z,101623.47
2023-02-23T18:46:41.088Z,101621.84
2023-02-23T18:53:09.215Z,101617.84
2023-02-23T18:55:54.939Z,101623.03
2023-02-23T18:58:51.824Z,101618.66
2023-02-23T19:01:29.872Z,101607.28
2023-02-23T19:07:23.129Z,101593.41
2023-02-23T19:10:21.844Z,101594.28
2023-02-23T19:16:17.090Z,101642.34
2023-02-23T19:18:45.275Z,101645.66
2023-02-23T19:21:14.053Z,101630.56
2023-02-23T19:23:45.464Z,101651.59
2023-02-23T19:26:15.232Z,101647.97
2023-02-23T19:28:43.650Z,101655.66
2023-02-23T19:31:15.898Z,101612.59
2023-02-23T19:33:45.475Z,101635.25
2023-02-23T19:36:15.899Z,101629.88
2023-02-23T19:38:43.950Z,101611.63
2023-02-23T19:41:17.665Z,101619.38
2023-02-23T19:43:46.213Z,101607.31
2023-02-23T19:46:17.610Z,101581.69
2023-02-23T19:48:52.582Z,101602.06
2023-02-23T19:51:21.989Z,101591.53
2023-02-23T19:53:54.248Z,101593.47
2023-02-23T19:56:25.624Z,101584.78
2023-02-23T19:58:56.786Z,101583.81
2023-02-23T20:01:27.690Z,101580.06
2023-02-23T20:04:01.934Z,101550.09
2023-02-23T20:06:34.813Z,101558.03
2023-02-23T20:09:06.455Z,101550.03
2023-02-23T20:11:35.923Z,101561.34
2023-02-23T20:14:05.200Z,101564.88
2023-02-23T20:16:34.137Z,101563.72
2023-02-23T20:19:03.608Z,101551.38
2023-02-23T20:21:33.682Z,101560.94
2023-02-23T20:24:02.430Z,101553.31
2023-02-23T20:26:34.327Z,101548.13
2023-02-23T20:29:06.123Z,101550.91
2023-02-23T20:31:36.360Z,101536.25
2023-02-23T20:34:07.659Z,101532.16
2023-02-23T20:36:36.839Z,101520.78
2023-02-23T20:39:05.382Z,101537.66
2023-02-23T20:41:34.291Z,101535.94
2023-02-23T20:44:05.762Z,101522.19
2023-02-23T20:46:33.845Z,101536.19
2023-02-23T20:49:03.415Z,101518.81
2023-02-23T20:51:31.500Z,101532.78
2023-02-23T20:53:59.646Z,101533.66
2023-02-23T20:56:32.893Z,101519.56
2023-02-23T20:59:00.923Z,101539.66
2023-02-23T21:01:32.003Z,101543.97
2023-02-23T21:04:01.980Z,101547.53
2023-02-23T21:06:31.747Z,101539.78
2023-02-23T21:09:12.723Z,101552.72
2023-02-23T21:11:40.975Z,101546.41
2023-02-23T21:14:09.005Z,101563.81
2023-02-23T21:16:40.991Z,101559.41
2023-02-23T21:19:11.762Z,101545.59
2023-02-23T21:21:41.959Z,101560.53
2023-02-23T21:24:11.120Z,101551.81
2023-02-23T21:26:39.721Z,101573.75
2023-02-23T21:29:15.146Z,101570.34
2023-02-23T21:31:47.503Z,101569.34
2023-02-23T21:34:19.885Z,101593.81
2023-02-23T21:36:50.018Z,101573.72
2023-02-23T21:39:19.318Z,101593.72
2023-02-23T21:41:48.245Z,101593.63
2023-02-23T21:44:16.347Z,101593.63
2023-02-23T21:46:46.507Z,101579.72
2023-02-23T21:49:18.820Z,101576.28
2023-02-23T21:51:47.470Z,101579.84
2023-02-23T21:54:18.987Z,101545.88
2023-02-23T21:56:47.082Z,101581.75
2023-02-23T21:59:15.191Z,101576.53
2023-02-23T22:01:56.633Z,101552.06
2023-02-23T22:04:25.941Z,101576.56
2023-02-23T22:06:54.383Z,101550.38
2023-02-23T22:09:22.883Z,101579.28
2023-02-23T22:11:51.023Z,101582.78
2023-02-23T22:14:24.351Z,101547.78
2023-02-23T22:16:53.976Z,101584.56
2023-02-23T22:19:22.493Z,101573.16
2023-02-23T22:21:55.159Z,101598.56
2023-02-23T22:24:23.142Z,101599.44
2023-02-23T22:26:54.589Z,101583.75
2023-02-23T22:29:38.484Z,101556.53
2023-02-23T22:32:09.429Z,101578.44
2023-02-23T22:34:47.993Z,101526.91
2023-02-23T22:37:21.274Z,101568.91
2023-02-23T22:39:49.388Z,101577.66
2023-02-23T22:42:17.720Z,101561.09
2023-02-23T22:44:45.980Z,101565.41
2023-02-23T22:47:18.607Z,101587.31
2023-02-23T22:49:53.825Z,101584.69
2023-02-23T22:52:22.104Z,101595.19
2023-02-23T22:54:56.338Z,101600.44
2023-02-23T22:57:34.838Z,101590.00
2023-02-23T23:00:13.527Z,101596.97
2023-02-23T23:02:44.175Z,101577.75
2023-02-23T23:05:14.860Z,101593.50
2023-02-23T23:08:04.447Z,101590.91
2023-02-23T23:10:34.306Z,101555.91
2023-02-23T23:13:05.596Z,101583.91
2023-02-23T23:15:33.949Z,101574.28
2023-02-23T23:18:14.259Z,101570.78
2023-02-23T23:20:49.115Z,101563.84
2023-02-23T23:23:17.782Z,101540.19
2023-02-23T23:25:48.501Z,101529.69
2023-02-23T23:28:18.966Z,101536.72
2023-02-23T23:30:52.165Z,101554.22
2023-02-23T23:33:22.155Z,101518.34
2023-02-23T23:35:58.483Z,101514.88
2023-02-23T23:38:26.400Z,101541.94
2023-02-23T23:40:54.692Z,101514.00
2023-02-23T23:43:23.255Z,101492.19
2023-02-23T23:45:59.157Z,101501.78
2023-02-23T23:48:29.686Z,101495.66
2023-02-23T23:51:01.776Z,101490.44
2023-02-23T23:53:29.860Z,101471.22
2023-02-23T23:56:06.398Z,101486.09
2023-02-23T23:58:35.837Z,101501.81
